createdAt,value
2018-12-03T00:02:13.055Z,14.47
2018-12-03T00:04:45.979Z,9.73
2018-12-03T00:07:22.239Z,10.33
2018-12-03T00:09:59.580Z,12.27
2018-12-03T00:12:35.268Z,13.60
2018-12-03T00:15:08.706Z,11.50
2018-12-03T00:17:41.686Z,16.73
2018-12-03T00:20:18.334Z,14.07
2018-12-03T00:22:51.443Z,9.77
2018-12-03T00:25:27.682Z,13.33
2018-12-03T00:28:01.630Z,13.07
2018-12-03T00:30:35.894Z,14.80
2018-12-03T00:33:08.886Z,8.77
2018-12-03T00:35:44.453Z,10.00
2018-12-03T00:38:20.015Z,11.90
2018-12-03T00:40:57.392Z,13.63
2018-12-03T00:43:34.883Z,15.27
2018-12-03T00:46:12.293Z,12.53
2018-12-03T00:48:48.113Z,11.63
2018-12-03T00:51:24.094Z,10.83
2018-12-03T00:53:59.895Z,13.03
2018-12-03T00:56:35.926Z,11.17
2018-12-03T00:59:09.126Z,11.73
2018-12-03T01:01:43.407Z,13.40
2018-12-03T01:04:21.957Z,9.10
2018-12-03T01:06:54.559Z,10.93
2018-12-03T01:09:30.066Z,9.37
2018-12-03T01:12:02.714Z,12.77
2018-12-03T01:14:38.279Z,9.17
2018-12-03T01:17:15.356Z,10.70
2018-12-03T01:19:48.762Z,12.70
2018-12-03T01:22:24.867Z,9.80
2018-12-03T01:24:59.867Z,8.87
2018-12-03T01:27:37.433Z,8.20
2018-12-03T01:30:16.931Z,8.63
2018-12-03T01:32:51.009Z,8.30
2018-12-03T01:35:24.249Z,12.37
2018-12-03T01:37:56.882Z,8.00
2018-12-03T01:40:29.434Z,8.37
2018-12-03T01:43:05.684Z,11.70
2018-12-03T01:45:41.067Z,10.90
2018-12-03T01:48:19.408Z,10.70
2018-12-03T01:50:55.973Z,11.17
2018-12-03T01:53:33.652Z,15.03
2018-12-03T01:56:06.519Z,9.67
2018-12-03T01:58:42.497Z,11.57
2018-12-03T02:01:19.821Z,10.20
2018-12-03T02:03:53.872Z,9.07
2018-12-03T02:06:26.882Z,12.93
2018-12-03T02:09:01.432Z,10.73
2018-12-03T02:11:37.399Z,8.97
2018-12-03T02:14:11.180Z,8.03
2018-12-03T02:16:43.819Z,11.03
2018-12-03T02:19:20.422Z,9.20
2018-12-03T02:21:53.070Z,8.60
2018-12-03T02:24:28.826Z,7.93
2018-12-03T02:27:04.287Z,11.33
2018-12-03T02:29:39.846Z,7.57
2018-12-03T02:32:16.746Z,13.90
2018-12-03T02:34:54.665Z,10.10
2018-12-03T02:37:27.140Z,7.93
2018-12-03T02:40:01.697Z,8.97
2018-12-03T02:42:34.403Z,8.57
2018-12-03T02:45:08.035Z,7.03
2018-12-03T02:47:41.703Z,6.90
2018-12-03T02:50:16.087Z,11.87
2018-12-03T02:55:34.335Z,8.77
2018-12-03T02:58:06.974Z,8.10
2018-12-03T03:00:42.187Z,9.37
2018-12-03T03:03:15.817Z,10.37
2018-12-03T03:05:48.355Z,9.60
2018-12-03T03:08:26.715Z,12.07
2018-12-03T03:10:59.197Z,11.03
2018-12-03T03:13:33.214Z,8.07
2018-12-03T03:16:06.706Z,12.93
2018-12-03T03:21:25.098Z,10.43
2018-12-03T03:26:55.066Z,7.93
2018-12-03T03:29:31.196Z,7.17
2018-12-03T03:32:07.329Z,8.47
2018-12-03T03:34:41.385Z,12.77
2018-12-03T03:37:18.200Z,9.57
2018-12-03T03:39:53.773Z,9.97
2018-12-03T03:42:30.378Z,6.73
2018-12-03T03:45:03.334Z,11.53
2018-12-03T03:47:36.865Z,7.17
2018-12-03T03:50:12.563Z,14.50
2018-12-03T03:52:45.091Z,12.00
2018-12-03T03:55:22.718Z,9.97
2018-12-03T03:57:56.124Z,7.63
2018-12-03T04:00:32.743Z,12.00
2018-12-03T04:03:09.469Z,11.33
2018-12-03T04:05:42.733Z,11.87
2018-12-03T04:08:16.955Z,10.73
2018-12-03T04:10:49.989Z,8.00
2018-12-03T04:13:22.767Z,8.73
2018-12-03T04:15:55.593Z,10.23
2018-12-03T04:18:27.811Z,11.23
2018-12-03T04:21:04.796Z,13.73
2018-12-03T04:23:37.995Z,13.03
2018-12-03T04:26:11.279Z,10.13
2018-12-03T04:28:44.495Z,8.40
2018-12-03T04:31:17.737Z,15.53
2018-12-03T04:33:50.231Z,8.47
2018-12-03T04:36:26.775Z,10.47
2018-12-03T04:38:59.461Z,9.13
2018-12-03T04:41:37.080Z,11.00
2018-12-03T04:44:11.553Z,7.90
2018-12-03T04:46:47.742Z,13.23
2018-12-03T04:49:24.423Z,10.40
2018-12-03T04:51:57.440Z,9.07
2018-12-03T04:54:33.435Z,16.47
2018-12-03T04:57:08.855Z,8.40
2018-12-03T04:59:47.034Z,13.33
2018-12-03T05:02:22.052Z,11.03
2018-12-03T05:04:59.753Z,7.17
2018-12-03T05:07:33.145Z,6.73
2018-12-03T05:10:12.418Z,8.30
2018-12-03T05:12:47.005Z,7.90
2018-12-03T05:15:19.649Z,8.03
2018-12-03T05:17:56.493Z,8.83
2018-12-03T05:20:33.750Z,9.00
2018-12-03T05:25:51.970Z,10.10
2018-12-03T05:28:26.877Z,7.97
2018-12-03T05:31:03.845Z,12.63
2018-12-03T05:36:33.143Z,15.70
2018-12-03T05:39:09.633Z,7.47
2018-12-03T05:41:42.389Z,10.47
2018-12-03T05:47:10.244Z,13.20
2018-12-03T07:41:09.419Z,12.33
2018-12-03T07:43:54.616Z,10.53
2018-12-03T09:52:27.843Z,19.63
2018-12-03T15:14:15.779Z,26.27
2018-12-03T15:37:37.537Z,15.93
2018-12-03T15:40:14.421Z,20.93
2018-12-03T15:42:47.883Z,18.10
2018-12-03T15:45:24.209Z,25.13
2018-12-03T15:48:00.940Z,18.40
2018-12-03T15:50:34.546Z,21.93
2018-12-03T15:53:07.637Z,32.83
2018-12-03T15:55:43.787Z,21.33
2018-12-03T15:58:16.868Z,23.47
2018-12-03T16:00:51.008Z,22.60
2018-12-03T16:03:24.318Z,16.30
2018-12-03T16:06:01.673Z,21.73
2018-12-03T16:08:38.043Z,25.83
2018-12-03T16:11:12.583Z,29.90
2018-12-03T16:13:46.365Z,17.57
2018-12-03T16:16:21.101Z,18.80
2018-12-03T16:18:56.841Z,21.60
2018-12-03T16:21:33.954Z,10.20
2018-12-03T16:24:08.553Z,13.73
2018-12-03T16:26:44.803Z,26.17
2018-12-03T16:29:18.150Z,23.07
2018-12-03T16:31:51.257Z,25.13
2018-12-03T16:34:26.625Z,23.03
2018-12-03T16:36:59.360Z,20.33
2018-12-03T16:39:34.895Z,19.13
2018-12-03T16:42:08.814Z,20.47
2018-12-03T16:44:45.838Z,27.33
2018-12-03T16:47:19.308Z,21.27
2018-12-03T16:49:54.963Z,13.77
2018-12-03T16:52:28.416Z,29.53
2018-12-03T16:55:00.806Z,20.60
2018-12-03T16:57:37.027Z,19.37
2018-12-03T17:00:11.551Z,11.20
2018-12-03T17:02:42.244Z,18.20
2018-12-03T17:05:17.835Z,16.97
2018-12-03T17:07:51.286Z,16.63
2018-12-03T17:10:24.550Z,17.10
2018-12-03T17:12:57.980Z,14.70
2018-12-03T17:15:30.591Z,20.80
2018-12-03T17:18:08.646Z,19.27
2018-12-03T17:21:05.400Z,14.87
2018-12-03T17:23:55.567Z,12.53
2018-12-03T17:26:32.468Z,19.83
2018-12-03T17:29:06.727Z,14.53
2018-12-03T17:31:41.444Z,9.47
2018-12-03T17:34:16.986Z,18.90
2018-12-03T17:36:50.288Z,17.80
2018-12-03T17:39:23.205Z,14.70
2018-12-03T17:41:59.539Z,16.90
2018-12-03T17:44:38.334Z,13.80
2018-12-03T17:47:11.014Z,15.37
2018-12-03T17:49:43.707Z,24.37
2018-12-03T17:52:19.153Z,13.20
2018-12-03T17:54:52.808Z,19.03
2018-12-03T17:57:29.339Z,22.33
2018-12-03T18:00:02.459Z,20.03
2018-12-03T18:02:35.823Z,21.03
2018-12-03T18:05:07.186Z,12.57
2018-12-03T18:07:42.598Z,14.67
2018-12-03T18:10:15.584Z,11.90
2018-12-03T18:12:49.133Z,20.60
2018-12-03T18:15:25.588Z,13.73
2018-12-03T18:17:58.264Z,14.97
2018-12-03T18:20:34.587Z,16.00
2018-12-03T18:23:08.598Z,11.07
2018-12-03T18:25:42.397Z,9.93
2018-12-03T18:28:14.314Z,13.00
2018-12-03T18:30:47.931Z,15.23
2018-12-03T18:33:24.312Z,12.80
2018-12-03T18:35:55.347Z,11.67
2018-12-03T18:38:29.860Z,8.93
2018-12-03T18:41:03.983Z,9.47
2018-12-03T18:43:41.081Z,15.60
2018-12-03T18:46:17.541Z,13.73
2018-12-03T18:48:58.384Z,13.43
2018-12-03T18:51:29.122Z,19.17
2018-12-03T18:54:04.744Z,15.17
2018-12-03T18:56:41.281Z,20.77
2018-12-03T18:59:13.815Z,9.40
2018-12-03T19:01:51.124Z,17.10
2018-12-03T19:04:27.641Z,7.67
2018-12-03T19:07:02.087Z,9.80
2018-12-03T19:09:40.750Z,19.97
2018-12-03T19:12:18.535Z,9.33
2018-12-03T19:14:55.257Z,13.83
2018-12-03T19:17:31.391Z,17.30
2018-12-03T19:20:04.275Z,13.93
2018-12-03T19:22:39.730Z,14.23
2018-12-03T19:27:56.119Z,7.17
2018-12-03T19:30:28.932Z,12.30
2018-12-03T19:33:01.952Z,12.47
2018-12-03T19:35:39.052Z,13.00
2018-12-03T19:38:16.963Z,8.43
2018-12-03T19:40:54.983Z,9.53
2018-12-03T19:43:27.934Z,7.23
2018-12-03T19:46:05.134Z,6.87
2018-12-03T19:48:41.753Z,10.10
2018-12-03T19:51:15.455Z,8.67
2018-12-03T19:53:49.146Z,4.53
2018-12-03T19:56:25.601Z,3.67
2018-12-03T19:58:59.227Z,5.97
2018-12-03T20:01:32.128Z,6.03
2018-12-03T20:04:06.457Z,5.33
2018-12-03T20:06:38.962Z,5.43
2018-12-03T20:09:16.130Z,6.43
2018-12-03T20:11:49.109Z,4.20
2018-12-03T20:14:22.287Z,3.70
2018-12-03T20:16:55.381Z,8.43
2018-12-03T20:19:28.841Z,6.40
2018-12-03T20:22:02.325Z,6.03
2018-12-03T20:24:37.679Z,8.27
2018-12-03T20:27:15.727Z,6.27
2018-12-03T20:30:09.317Z,8.67
2018-12-03T20:32:48.249Z,7.40
2018-12-03T20:35:25.745Z,3.97
2018-12-03T20:38:06.501Z,6.10
2018-12-03T20:41:01.896Z,7.47
2018-12-03T20:43:36.633Z,5.27
2018-12-03T20:46:31.846Z,3.33
2018-12-03T20:49:30.109Z,6.43
2018-12-03T20:52:22.142Z,4.83
2018-12-03T20:54:58.291Z,7.20
2018-12-03T20:57:32.791Z,4.83
2018-12-03T21:00:05.755Z,4.57
2018-12-03T21:02:38.765Z,5.07
2018-12-03T21:05:14.310Z,5.47
2018-12-03T21:07:52.533Z,5.80
2018-12-03T21:10:25.351Z,4.20
2018-12-03T21:12:58.351Z,2.53
2018-12-03T21:15:32.073Z,4.33
2018-12-03T21:18:05.973Z,4.20
2018-12-03T21:20:46.794Z,4.57
2018-12-03T21:23:20.218Z,3.20
2018-12-03T21:25:54.028Z,3.43
2018-12-03T21:28:30.605Z,3.47
2018-12-03T21:31:06.992Z,4.80
2018-12-03T21:33:39.801Z,2.73
2018-12-03T21:36:16.030Z,4.53
2018-12-03T21:38:50.027Z,4.83
2018-12-03T21:41:23.427Z,6.17
2018-12-03T21:43:56.347Z,3.53
2018-12-03T21:46:33.166Z,4.87
2018-12-03T21:49:05.784Z,1.53
2018-12-03T21:51:38.394Z,3.87
2018-12-03T21:54:13.928Z,6.70
2018-12-03T21:56:48.083Z,4.57
2018-12-03T21:59:22.142Z,1.10
2018-12-03T22:01:54.978Z,3.90
2018-12-03T22:04:32.222Z,1.77
2018-12-03T22:07:05.701Z,3.27
2018-12-03T22:09:39.247Z,2.93
2018-12-03T22:12:13.941Z,2.23
2018-12-03T22:14:46.543Z,4.00
2018-12-03T22:17:22.069Z,5.47
2018-12-03T22:19:59.249Z,3.83
2018-12-03T22:22:33.215Z,4.60
2018-12-03T22:25:07.667Z,4.13
2018-12-03T22:27:43.946Z,5.00
2018-12-03T22:30:16.917Z,2.20
2018-12-03T22:32:49.913Z,4.77
2018-12-03T22:35:24.338Z,6.80
2018-12-03T22:37:57.684Z,6.60
2018-12-03T22:40:30.518Z,2.33
2018-12-03T22:43:03.717Z,3.20
2018-12-03T22:45:37.635Z,4.63
2018-12-03T22:48:15.191Z,0.73
2018-12-03T22:50:52.435Z,7.97
2018-12-03T22:53:28.241Z,6.13
2018-12-03T22:56:01.496Z,5.13
2018-12-03T22:58:34.518Z,1.03
2018-12-03T23:01:08.156Z,2.90
2018-12-03T23:03:44.049Z,13.43
2018-12-03T23:06:21.135Z,2.50
2018-12-03T23:08:54.424Z,3.17
2018-12-03T23:11:27.790Z,2.37
2018-12-03T23:14:04.315Z,8.30
2018-12-03T23:16:38.832Z,5.40
2018-12-03T23:19:13.088Z,7.37
2018-12-03T23:21:46.035Z,1.57
2018-12-03T23:24:18.975Z,3.37
2018-12-03T23:26:55.855Z,3.80
2018-12-03T23:29:31.296Z,5.67
2018-12-03T23:32:07.388Z,5.57
2018-12-03T23:34:40.701Z,3.17
2018-12-03T23:37:13.862Z,5.33
2018-12-03T23:39:47.961Z,2.93
2018-12-03T23:42:23.676Z,6.57
2018-12-03T23:44:57.142Z,4.73
2018-12-03T23:47:33.844Z,5.67
2018-12-03T23:50:06.908Z,7.07
2018-12-03T23:52:39.923Z,3.57
2018-12-03T23:55:13.344Z,4.57
2018-12-03T23:57:49.737Z,5.97
